sensor_id;sensor_type;location;lat;lon;timestamp;pressure;altitude;pressure_sealevel;temperature;humidity
59106;BME280;44891;50.204;8.132;2023-07-29T00:00:05;97644.34;;;18.23;100.00
59106;BME280;44891;50.204;8.132;2023-07-29T00:04:13;97652.91;;;18.20;100.00
59106;BME280;44891;50.204;8.132;2023-07-29T00:08:16;97649.50;;;18.06;100.00
59106;BME280;44891;50.204;8.132;2023-07-29T00:12:20;97638.41;;;18.04;100.00
59106;BME280;44891;50.204;8.132;2023-07-29T00:16:22;97646.00;;;18.19;100.00
59106;BME280;44891;50.204;8.132;2023-07-29T00:20:25;97646.00;;;18.19;100.00
59106;BME280;44891;50.204;8.132;2023-07-29T00:24:27;97626.69;;;18.05;100.00
59106;BME280;44891;50.204;8.132;2023-07-29T00:28:31;97645.91;;;18.24;100.00
59106;BME280;44891;50.204;8.132;2023-07-29T00:32:35;97614.66;;;18.07;100.00
59106;BME280;44891;50.204;8.132;2023-07-29T00:36:37;97642.47;;;18.24;100.00
59106;BME280;44891;50.204;8.132;2023-07-29T00:40:39;97630.63;;;18.30;100.00
59106;BME280;44891;50.204;8.132;2023-07-29T00:44:43;97624.69;;;18.33;100.00
59106;BME280;44891;50.204;8.132;2023-07-29T00:48:45;97600.41;;;18.26;100.00
59106;BME280;44891;50.204;8.132;2023-07-29T00:52:48;97603.72;;;18.31;100.00
59106;BME280;44891;50.204;8.132;2023-07-29T00:56:51;97598.41;;;18.31;100.00
59106;BME280;44891;50.204;8.132;2023-07-29T01:00:55;97603.72;;;18.31;100.00
59106;BME280;44891;50.204;8.132;2023-07-29T01:04:58;97598.09;;;18.33;100.00
59106;BME280;44891;50.204;8.132;2023-07-29T01:09:03;97608.75;;;18.33;100.00
59106;BME280;44891;50.204;8.132;2023-07-29T01:13:10;97596.84;;;18.30;100.00
59106;BME280;44891;50.204;8.132;2023-07-29T01:17:22;97588.22;;;18.25;100.00
59106;BME280;44891;50.204;8.132;2023-07-29T01:21:26;97589.00;;;18.25;100.00
59106;BME280;44891;50.204;8.132;2023-07-29T01:25:30;97583.97;;;18.24;100.00
59106;BME280;44891;50.204;8.132;2023-07-29T01:29:34;97580.66;;;18.18;100.00
59106;BME280;44891;50.204;8.132;2023-07-29T01:33:40;97591.75;;;18.20;100.00
59106;BME280;44891;50.204;8.132;2023-07-29T01:37:47;97585.56;;;18.25;100.00
59106;BME280;44891;50.204;8.132;2023-07-29T01:41:52;97586.81;;;18.27;100.00
59106;BME280;44891;50.204;8.132;2023-07-29T01:45:54;97592.91;;;18.28;100.00
59106;BME280;44891;50.204;8.132;2023-07-29T01:49:57;97585.34;;;18.21;100.00
59106;BME280;44891;50.204;8.132;2023-07-29T01:53:59;97586.50;;;18.29;100.00
59106;BME280;44891;50.204;8.132;2023-07-29T01:58:03;97589.16;;;18.29;100.00
59106;BME280;44891;50.204;8.132;2023-07-29T02:02:08;97588.22;;;18.25;100.00
59106;BME280;44891;50.204;8.132;2023-07-29T02:06:10;97585.59;;;18.33;100.00
59106;BME280;44891;50.204;8.132;2023-07-29T02:10:12;97564.44;;;18.28;100.00
59106;BME280;44891;50.204;8.132;2023-07-29T02:14:16;97581.91;;;18.43;100.00
59106;BME280;44891;50.204;8.132;2023-07-29T02:18:18;97569.75;;;18.51;100.00
59106;BME280;44891;50.204;8.132;2023-07-29T02:22:20;97576.31;;;18.53;100.00
59106;BME280;44891;50.204;8.132;2023-07-29T02:26:23;97573.34;;;18.55;100.00
59106;BME280;44891;50.204;8.132;2023-07-29T02:30:26;97570.69;;;18.55;100.00
59106;BME280;44891;50.204;8.132;2023-07-29T02:34:29;97560.22;;;18.50;100.00
59106;BME280;44891;50.204;8.132;2023-07-29T02:38:31;97554.69;;;18.46;100.00
59106;BME280;44891;50.204;8.132;2023-07-29T02:42:33;97562.88;;;18.50;100.00
59106;BME280;44891;50.204;8.132;2023-07-29T02:46:37;97550.34;;;18.50;100.00
59106;BME280;44891;50.204;8.132;2023-07-29T02:50:40;97537.72;;;18.56;100.00
59106;BME280;44891;50.204;8.132;2023-07-29T02:54:42;97537.84;;;18.51;100.00
59106;BME280;44891;50.204;8.132;2023-07-29T02:58:44;97531.41;;;18.43;100.00
59106;BME280;44891;50.204;8.132;2023-07-29T03:02:49;97530.13;;;18.40;100.00
59106;BME280;44891;50.204;8.132;2023-07-29T03:06:51;97533.41;;;18.37;100.00
59106;BME280;44891;50.204;8.132;2023-07-29T03:10:54;97519.91;;;18.34;100.00
59106;BME280;44891;50.204;8.132;2023-07-29T03:14:57;97516.59;;;18.28;100.00
59106;BME280;44891;50.204;8.132;2023-07-29T03:19:02;97510.03;;;18.26;100.00
59106;BME280;44891;50.204;8.132;2023-07-29T03:23:04;97520.00;;;18.20;100.00
59106;BME280;44891;50.204;8.132;2023-07-29T03:27:06;97512.66;;;18.17;100.00
59106;BME280;44891;50.204;8.132;2023-07-29T03:31:10;97509.28;;;18.03;100.00
59106;BME280;44891;50.204;8.132;2023-07-29T03:35:15;97530.75;;;18.15;100.00
59106;BME280;44891;50.204;8.132;2023-07-29T03:39:17;97533.91;;;18.17;100.00
59106;BME280;44891;50.204;8.132;2023-07-29T03:43:21;97528.16;;;18.24;100.00
59106;BME280;44891;50.204;8.132;2023-07-29T03:47:23;97527.97;;;18.20;100.00
59106;BME280;44891;50.204;8.132;2023-07-29T03:51:27;97521.41;;;18.17;100.00
59106;BME280;44891;50.204;8.132;2023-07-29T03:55:30;97516.09;;;18.17;100.00
59106;BME280;44891;50.204;8.132;2023-07-29T03:59:32;97514.69;;;18.20;100.00
59106;BME280;44891;50.204;8.132;2023-07-29T04:03:34;97527.19;;;18.19;100.00
59106;BME280;44891;50.204;8.132;2023-07-29T04:07:38;97515.59;;;18.15;100.00
59106;BME280;44891;50.204;8.132;2023-07-29T04:11:41;97499.66;;;18.15;100.00
59106;BME280;44891;50.204;8.132;2023-07-29T04:15:43;97498.09;;;18.14;100.00
59106;BME280;44891;50.204;8.132;2023-07-29T04:19:45;97483.78;;;18.02;100.00
59106;BME280;44891;50.204;8.132;2023-07-29T04:23:52;97506.59;;;18.25;100.00
59106;BME280;44891;50.204;8.132;2023-07-29T04:27:55;97503.94;;;18.25;100.00
59106;BME280;44891;50.204;8.132;2023-07-29T04:31:58;97501.75;;;18.27;100.00
59106;BME280;44891;50.204;8.132;2023-07-29T04:36:02;97501.44;;;18.29;100.00
59106;BME280;44891;50.204;8.132;2023-07-29T04:40:07;97500.72;;;18.37;100.00
59106;BME280;44891;50.204;8.132;2023-07-29T04:44:10;97492.13;;;18.40;100.00
59106;BME280;44891;50.204;8.132;2023-07-29T04:48:12;97507.94;;;18.45;100.00
59106;BME280;44891;50.204;8.132;2023-07-29T04:52:15;97503.88;;;18.47;100.00
59106;BME280;44891;50.204;8.132;2023-07-29T04:56:18;97511.25;;;18.51;100.00
59106;BME280;44891;50.204;8.132;2023-07-29T05:00:21;97505.31;;;18.54;100.00
59106;BME280;44891;50.204;8.132;2023-07-29T05:04:24;97513.59;;;18.52;100.00
59106;BME280;44891;50.204;8.132;2023-07-29T05:08:26;97509.41;;;18.60;100.00
59106;BME280;44891;50.204;8.132;2023-07-29T05:12:30;97506.34;;;18.66;100.00
59106;BME280;44891;50.204;8.132;2023-07-29T05:16:33;97530.13;;;18.71;100.00
59106;BME280;44891;50.204;8.132;2023-07-29T05:20:37;97512.78;;;18.74;100.00
59106;BME280;44891;50.204;8.132;2023-07-29T05:24:40;97500.19;;;18.66;100.00
59106;BME280;44891;50.204;8.132;2023-07-29T05:28:43;97524.72;;;18.85;100.00
59106;BME280;44891;50.204;8.132;2023-07-29T05:32:46;97522.38;;;18.92;100.00
59106;BME280;44891;50.204;8.132;2023-07-29T05:36:48;97520.81;;;18.91;100.00
59106;BME280;44891;50.204;8.132;2023-07-29T05:40:51;97536.78;;;18.91;100.00
59106;BME280;44891;50.204;8.132;2023-07-29T05:44:54;97535.53;;;18.89;100.00
59106;BME280;44891;50.204;8.132;2023-07-29T05:48:57;97539.56;;;18.86;100.00
59106;BME280;44891;50.204;8.132;2023-07-29T05:52:59;97548.00;;;18.80;100.00
59106;BME280;44891;50.204;8.132;2023-07-29T05:57:01;97558.63;;;18.80;100.00
59106;BME280;44891;50.204;8.132;2023-07-29T06:01:06;97552.19;;;18.72;100.00
59106;BME280;44891;50.204;8.132;2023-07-29T06:05:08;97540.94;;;18.75;100.00
59106;BME280;44891;50.204;8.132;2023-07-29T06:09:10;97520.03;;;18.60;100.00
59106;BME280;44891;50.204;8.132;2023-07-29T06:13:12;97534.50;;;18.67;100.00
59106;BME280;44891;50.204;8.132;2023-07-29T06:17:16;97512.31;;;18.72;100.00
59106;BME280;44891;50.204;8.132;2023-07-29T06:21:19;97494.31;;;18.69;100.00
59106;BME280;44891;50.204;8.132;2023-07-29T06:25:21;97501.66;;;18.72;100.00
59106;BME280;44891;50.204;8.132;2023-07-29T06:29:23;97532.00;;;18.71;100.00
59106;BME280;44891;50.204;8.132;2023-07-29T06:33:27;97541.88;;;18.70;100.00
59106;BME280;44891;50.204;8.132;2023-07-29T06:37:30;97532.00;;;18.71;100.00
59106;BME280;44891;50.204;8.132;2023-07-29T06:41:34;97558.44;;;18.67;100.00
59106;BME280;44891;50.204;8.132;2023-07-29T06:45:38;97558.25;;;18.64;100.00
59106;BME280;44891;50.204;8.132;2023-07-29T06:49:42;97561.81;;;18.59;100.00
59106;BME280;44891;50.204;8.132;2023-07-29T06:53:44;97552.63;;;18.65;100.00
59106;BME280;44891;50.204;8.132;2023-07-29T06:57:46;97519.91;;;18.65;100.00
59106;BME280;44891;50.204;8.132;2023-07-29T07:01:49;97587.19;;;18.65;100.00
59106;BME280;44891;50.204;8.132;2023-07-29T07:05:52;97565.97;;;18.74;100.00
59106;BME280;44891;50.204;8.132;2023-07-29T07:09:55;97582.00;;;18.91;100.00
59106;BME280;44891;50.204;8.132;2023-07-29T07:13:57;97581.91;;;19.05;100.00
59106;BME280;44891;50.204;8.132;2023-07-29T07:17:59;97591.19;;;19.16;100.00
59106;BME280;44891;50.204;8.132;2023-07-29T07:22:03;97584.31;;;19.24;100.00
59106;BME280;44891;50.204;8.132;2023-07-29T07:26:05;97578.13;;;19.06;100.00
59106;BME280;44891;50.204;8.132;2023-07-29T07:30:08;97583.84;;;19.22;100.00
59106;BME280;44891;50.204;8.132;2023-07-29T07:34:11;97578.69;;;19.34;100.00
59106;BME280;44891;50.204;8.132;2023-07-29T07:38:15;97570.22;;;19.41;100.00
59106;BME280;44891;50.204;8.132;2023-07-29T07:42:17;97591.78;;;19.70;100.00
59106;BME280;44891;50.204;8.132;2023-07-29T07:46:19;97586.59;;;19.91;100.00
59106;BME280;44891;50.204;8.132;2023-07-29T07:50:21;97572.94;;;20.19;100.00
59106;BME280;44891;50.204;8.132;2023-07-29T07:54:26;97576.38;;;20.45;100.00
59106;BME280;44891;50.204;8.132;2023-07-29T07:58:28;97576.66;;;20.61;100.00
59106;BME280;44891;50.204;8.132;2023-07-29T08:02:31;97570.50;;;20.69;100.00
59106;BME280;44891;50.204;8.132;2023-07-29T08:06:33;97564.78;;;20.79;100.00
59106;BME280;44891;50.204;8.132;2023-07-29T08:10:37;97550.66;;;20.79;100.00
59106;BME280;44891;50.204;8.132;2023-07-29T08:14:40;97571.78;;;21.01;100.00
59106;BME280;44891;50.204;8.132;2023-07-29T08:18:42;97570.63;;;21.11;100.00
59106;BME280;44891;50.204;8.132;2023-07-29T08:22:45;97584.72;;;21.20;100.00
59106;BME280;44891;50.204;8.132;2023-07-29T08:26:48;97570.59;;;21.49;98.54
59106;BME280;44891;50.204;8.132;2023-07-29T08:30:51;97592.72;;;21.79;97.15
59106;BME280;44891;50.204;8.132;2023-07-29T08:34:53;97580.91;;;21.59;91.35
59106;BME280;44891;50.204;8.132;2023-07-29T08:38:55;97580.50;;;21.90;89.67
59106;BME280;44891;50.204;8.132;2023-07-29T08:43:04;97590.53;;;21.93;90.99
59106;BME280;44891;50.204;8.132;2023-07-29T08:47:08;97589.97;;;21.37;85.30
59106;BME280;44891;50.204;8.132;2023-07-29T08:51:11;97572.78;;;21.17;88.15
59106;BME280;44891;50.204;8.132;2023-07-29T08:55:14;97575.72;;;21.33;85.72
59106;BME280;44891;50.204;8.132;2023-07-29T08:59:19;97579.06;;;21.51;87.00
59106;BME280;44891;50.204;8.132;2023-07-29T09:03:21;97574.69;;;22.09;83.51
59106;BME280;44891;50.204;8.132;2023-07-29T09:07:24;97587.28;;;22.42;71.08
59106;BME280;44891;50.204;8.132;2023-07-29T09:11:28;97585.00;;;22.65;73.10
59106;BME280;44891;50.204;8.132;2023-07-29T09:15:33;97596.94;;;22.67;72.78
59106;BME280;44891;50.204;8.132;2023-07-29T09:19:36;97584.44;;;22.59;72.72
59106;BME280;44891;50.204;8.132;2023-07-29T09:23:40;97592.22;;;22.64;70.92
59106;BME280;44891;50.204;8.132;2023-07-29T09:27:43;97574.69;;;22.42;71.87
59106;BME280;44891;50.204;8.132;2023-07-29T09:31:48;97600.34;;;23.01;70.81
59106;BME280;44891;50.204;8.132;2023-07-29T09:35:52;97604.81;;;23.21;68.75
59106;BME280;44891;50.204;8.132;2023-07-29T09:39:54;97591.19;;;22.90;68.19
59106;BME280;44891;50.204;8.132;2023-07-29T09:43:58;97576.31;;;22.68;69.46
59106;BME280;44891;50.204;8.132;2023-07-29T09:48:03;97589.56;;;22.64;72.50
59106;BME280;44891;50.204;8.132;2023-07-29T09:52:15;97592.97;;;22.86;72.92
59106;BME280;44891;50.204;8.132;2023-07-29T09:56:24;97585.41;;;22.88;68.30
59106;BME280;44891;50.204;8.132;2023-07-29T10:00:27;97586.84;;;23.10;70.14
59106;BME280;44891;50.204;8.132;2023-07-29T10:04:31;97583.16;;;23.14;71.72
59106;BME280;44891;50.204;8.132;2023-07-29T10:08:34;97576.91;;;23.22;72.12
59106;BME280;44891;50.204;8.132;2023-07-29T10:12:39;97582.47;;;23.29;72.71
59106;BME280;44891;50.204;8.132;2023-07-29T10:16:43;97568.78;;;23.06;73.95
59106;BME280;44891;50.204;8.132;2023-07-29T10:20:48;97586.63;;;23.39;73.01
59106;BME280;44891;50.204;8.132;2023-07-29T10:24:54;97591.28;;;23.67;72.16
59106;BME280;44891;50.204;8.132;2023-07-29T10:28:59;97591.16;;;23.63;70.18
59106;BME280;44891;50.204;8.132;2023-07-29T10:33:06;97584.03;;;23.67;71.11
59106;BME280;44891;50.204;8.132;2023-07-29T10:37:11;97585.34;;;23.49;71.30
59106;BME280;44891;50.204;8.132;2023-07-29T10:41:15;97584.81;;;23.43;72.05
59106;BME280;44891;50.204;8.132;2023-07-29T10:45:19;97554.91;;;23.41;67.90
59106;BME280;44891;50.204;8.132;2023-07-29T10:49:24;97583.78;;;23.60;65.27
59106;BME280;44891;50.204;8.132;2023-07-29T10:53:36;97579.56;;;23.47;65.53
59106;BME280;44891;50.204;8.132;2023-07-29T10:57:39;97563.41;;;23.83;65.21
59106;BME280;44891;50.204;8.132;2023-07-29T11:01:50;97568.25;;;24.34;63.36
59106;BME280;44891;50.204;8.132;2023-07-29T11:05:53;97567.75;;;24.44;63.26
59106;BME280;44891;50.204;8.132;2023-07-29T11:10:00;97576.53;;;24.01;61.99
59106;BME280;44891;50.204;8.132;2023-07-29T11:14:03;97579.75;;;23.78;64.12
59106;BME280;44891;50.204;8.132;2023-07-29T11:18:09;97573.38;;;24.11;64.45
59106;BME280;44891;50.204;8.132;2023-07-29T11:22:12;97561.41;;;23.80;64.74
59106;BME280;44891;50.204;8.132;2023-07-29T11:26:16;97572.78;;;24.61;63.30
59106;BME280;44891;50.204;8.132;2023-07-29T11:30:18;97569.44;;;25.12;60.15
59106;BME280;44891;50.204;8.132;2023-07-29T11:34:31;97551.81;;;24.99;59.08
59106;BME280;44891;50.204;8.132;2023-07-29T11:38:33;97564.22;;;25.03;60.67
59106;BME280;44891;50.204;8.132;2023-07-29T11:42:43;97571.50;;;25.03;61.32
59106;BME280;44891;50.204;8.132;2023-07-29T11:46:45;97574.16;;;24.55;62.09
59106;BME280;44891;50.204;8.132;2023-07-29T11:50:49;97550.63;;;24.80;62.38
59106;BME280;44891;50.204;8.132;2023-07-29T11:54:52;97531.00;;;24.95;59.26
59106;BME280;44891;50.204;8.132;2023-07-29T11:58:57;97554.16;;;25.00;59.38
59106;BME280;44891;50.204;8.132;2023-07-29T12:02:59;97559.47;;;24.65;59.87
59106;BME280;44891;50.204;8.132;2023-07-29T12:07:03;97555.72;;;24.85;60.65
59106;BME280;44891;50.204;8.132;2023-07-29T12:11:05;97554.03;;;25.28;59.64
59106;BME280;44891;50.204;8.132;2023-07-29T12:15:10;97549.63;;;25.20;59.12
59106;BME280;44891;50.204;8.132;2023-07-29T12:19:12;97540.91;;;25.07;60.23
59106;BME280;44891;50.204;8.132;2023-07-29T12:23:15;97547.84;;;25.08;60.31
59106;BME280;44891;50.204;8.132;2023-07-29T12:27:18;97543.94;;;24.74;59.42
59106;BME280;44891;50.204;8.132;2023-07-29T12:31:22;97548.28;;;24.47;60.13
59106;BME280;44891;50.204;8.132;2023-07-29T12:35:36;97555.66;;;24.50;60.64
59106;BME280;44891;50.204;8.132;2023-07-29T12:39:40;97546.69;;;24.30;60.24
59106;BME280;44891;50.204;8.132;2023-07-29T12:43:43;97557.94;;;24.08;60.64
59106;BME280;44891;50.204;8.132;2023-07-29T12:47:50;97554.28;;;24.00;62.11
59106;BME280;44891;50.204;8.132;2023-07-29T12:51:52;97559.56;;;23.97;60.80
59106;BME280;44891;50.204;8.132;2023-07-29T12:55:54;97562.22;;;24.37;60.76
59106;BME280;44891;50.204;8.132;2023-07-29T12:59:58;97549.41;;;24.62;58.76
59106;BME280;44891;50.204;8.132;2023-07-29T13:04:02;97543.94;;;24.74;58.96
59106;BME280;44891;50.204;8.132;2023-07-29T13:08:04;97558.75;;;25.00;58.62
59106;BME280;44891;50.204;8.132;2023-07-29T13:12:07;97548.09;;;25.19;57.63
59106;BME280;44891;50.204;8.132;2023-07-29T13:16:11;97553.78;;;25.33;57.11
59106;BME280;44891;50.204;8.132;2023-07-29T13:20:16;97534.22;;;25.52;55.05
59106;BME280;44891;50.204;8.132;2023-07-29T13:24:18;97550.56;;;25.43;56.02
59106;BME280;44891;50.204;8.132;2023-07-29T13:28:21;97556.34;;;25.10;56.60
59106;BME280;44891;50.204;8.132;2023-07-29T13:32:23;97566.91;;;24.87;55.19
59106;BME280;44891;50.204;8.132;2023-07-29T13:36:27;97544.66;;;24.71;55.47
59106;BME280;44891;50.204;8.132;2023-07-29T13:40:31;97558.78;;;24.84;55.80
59106;BME280;44891;50.204;8.132;2023-07-29T13:44:34;97548.34;;;25.14;54.32
59106;BME280;44891;50.204;8.132;2023-07-29T13:48:36;97554.03;;;25.28;55.12
59106;BME280;44891;50.204;8.132;2023-07-29T13:52:40;97552.97;;;25.68;53.53
59106;BME280;44891;50.204;8.132;2023-07-29T13:56:42;97554.09;;;26.25;53.00
59106;BME280;44891;50.204;8.132;2023-07-29T14:00:45;97562.03;;;26.37;49.19
59106;BME280;44891;50.204;8.132;2023-07-29T14:04:48;97566.97;;;26.54;48.94
59106;BME280;44891;50.204;8.132;2023-07-29T14:08:52;97555.00;;;26.52;49.54
59106;BME280;44891;50.204;8.132;2023-07-29T14:12:54;97555.00;;;26.75;48.31
59106;BME280;44891;50.204;8.132;2023-07-29T14:16:56;97544.53;;;26.70;48.72
59106;BME280;44891;50.204;8.132;2023-07-29T14:20:59;97543.72;;;26.04;50.63
59106;BME280;44891;50.204;8.132;2023-07-29T14:25:06;97520.69;;;26.07;50.72
59106;BME280;44891;50.204;8.132;2023-07-29T14:29:09;97538.47;;;26.34;49.44
59106;BME280;44891;50.204;8.132;2023-07-29T14:33:12;97537.16;;;26.67;49.21
59106;BME280;44891;50.204;8.132;2023-07-29T14:37:15;97554.38;;;27.08;47.04
59106;BME280;44891;50.204;8.132;2023-07-29T14:41:19;97545.91;;;27.36;45.64
59106;BME280;44891;50.204;8.132;2023-07-29T14:45:22;97543.19;;;26.83;45.37
59106;BME280;44891;50.204;8.132;2023-07-29T14:49:25;97532.78;;;26.59;46.03
59106;BME280;44891;50.204;8.132;2023-07-29T14:53:27;97524.22;;;26.76;46.03
59106;BME280;44891;50.204;8.132;2023-07-29T14:57:31;97524.53;;;26.97;44.73
59106;BME280;44891;50.204;8.132;2023-07-29T15:01:34;97528.59;;;27.37;44.59
59106;BME280;44891;50.204;8.132;2023-07-29T15:05:37;97522.56;;;27.77;44.16
59106;BME280;44891;50.204;8.132;2023-07-29T15:09:39;97537.22;;;27.80;43.06
59106;BME280;44891;50.204;8.132;2023-07-29T15:13:43;97528.84;;;27.58;44.86
59106;BME280;44891;50.204;8.132;2023-07-29T15:17:45;97529.59;;;27.85;44.76
59106;BME280;44891;50.204;8.132;2023-07-29T15:21:48;97539.28;;;27.90;44.44
59106;BME280;44891;50.204;8.132;2023-07-29T15:25:53;97531.34;;;27.41;45.26
59106;BME280;44891;50.204;8.132;2023-07-29T15:29:58;97529.53;;;27.48;47.25
59106;BME280;44891;50.204;8.132;2023-07-29T15:34:00;97535.72;;;27.52;45.21
59106;BME280;44891;50.204;8.132;2023-07-29T15:38:03;97534.94;;;27.22;43.43
59106;BME280;44891;50.204;8.132;2023-07-29T15:42:05;97535.59;;;26.43;45.41
59106;BME280;44891;50.204;8.132;2023-07-29T15:46:09;97517.47;;;25.97;46.52
59106;BME280;44891;50.204;8.132;2023-07-29T15:50:11;97539.72;;;26.82;46.53
59106;BME280;44891;50.204;8.132;2023-07-29T15:54:14;97542.72;;;26.77;46.04
59106;BME280;44891;50.204;8.132;2023-07-29T15:58:16;97529.50;;;26.46;46.86
59106;BME280;44891;50.204;8.132;2023-07-29T16:02:21;97535.44;;;26.55;47.01
59106;BME280;44891;50.204;8.132;2023-07-29T16:06:26;97542.19;;;26.45;47.94
59106;BME280;44891;50.204;8.132;2023-07-29T16:10:28;97539.81;;;26.90;46.67
59106;BME280;44891;50.204;8.132;2023-07-29T16:14:30;97527.75;;;26.57;47.14
59106;BME280;44891;50.204;8.132;2023-07-29T16:18:35;97530.56;;;25.99;48.43
59106;BME280;44891;50.204;8.132;2023-07-29T16:22:38;97529.50;;;26.03;49.83
59106;BME280;44891;50.204;8.132;2023-07-29T16:26:41;97550.13;;;25.77;49.17
59106;BME280;44891;50.204;8.132;2023-07-29T16:30:44;97545.81;;;25.56;50.36
59106;BME280;44891;50.204;8.132;2023-07-29T16:34:48;97545.19;;;25.63;50.49
59106;BME280;44891;50.204;8.132;2023-07-29T16:38:52;97523.81;;;25.51;49.87
59106;BME280;44891;50.204;8.132;2023-07-29T16:42:54;97531.13;;;25.34;50.46
59106;BME280;44891;50.204;8.132;2023-07-29T16:47:00;97538.41;;;25.69;50.08
59106;BME280;44891;50.204;8.132;2023-07-29T16:51:04;97543.63;;;25.62;49.72
59106;BME280;44891;50.204;8.132;2023-07-29T16:55:09;97496.03;;;25.27;50.80
59106;BME280;44891;50.204;8.132;2023-07-29T16:59:11;97544.19;;;25.52;50.83
59106;BME280;44891;50.204;8.132;2023-07-29T17:03:15;97556.63;;;25.40;51.18
59106;BME280;44891;50.204;8.132;2023-07-29T17:07:22;97557.44;;;25.25;51.60
59106;BME280;44891;50.204;8.132;2023-07-29T17:11:26;97552.75;;;25.22;51.91
59106;BME280;44891;50.204;8.132;2023-07-29T17:15:29;97550.19;;;25.10;51.67
59106;BME280;44891;50.204;8.132;2023-07-29T17:19:31;97526.59;;;24.87;51.73
59106;BME280;44891;50.204;8.132;2023-07-29T17:23:36;97520.81;;;24.85;52.37
59106;BME280;44891;50.204;8.132;2023-07-29T17:27:40;97537.91;;;24.77;52.59
59106;BME280;44891;50.204;8.132;2023-07-29T17:31:43;97539.44;;;24.62;52.82
59106;BME280;44891;50.204;8.132;2023-07-29T17:35:47;97550.59;;;24.49;53.84
59106;BME280;44891;50.204;8.132;2023-07-29T17:39:54;97552.84;;;24.47;53.77
59106;BME280;44891;50.204;8.132;2023-07-29T17:43:56;97554.06;;;24.49;52.90
59106;BME280;44891;50.204;8.132;2023-07-29T17:47:59;97552.16;;;24.34;52.89
59106;BME280;44891;50.204;8.132;2023-07-29T17:52:03;97549.34;;;24.30;54.52
59106;BME280;44891;50.204;8.132;2023-07-29T17:56:08;97560.31;;;24.37;53.93
59106;BME280;44891;50.204;8.132;2023-07-29T18:00:18;97563.19;;;24.32;54.72
59106;BME280;44891;50.204;8.132;2023-07-29T18:04:21;97568.44;;;24.13;54.77
59106;BME280;44891;50.204;8.132;2023-07-29T18:08:25;97566.69;;;24.05;55.32
59106;BME280;44891;50.204;8.132;2023-07-29T18:12:28;97570.09;;;23.90;55.98
59106;BME280;44891;50.204;8.132;2023-07-29T18:16:31;97576.38;;;23.81;55.67
59106;BME280;44891;50.204;8.132;2023-07-29T18:20:33;97577.88;;;23.67;56.71
59106;BME280;44891;50.204;8.132;2023-07-29T18:24:36;97584.78;;;23.55;57.56
59106;BME280;44891;50.204;8.132;2023-07-29T18:28:41;97566.50;;;23.45;58.73
59106;BME280;44891;50.204;8.132;2023-07-29T18:32:43;97585.84;;;23.39;61.58
59106;BME280;44891;50.204;8.132;2023-07-29T18:36:46;97580.38;;;23.23;61.08
59106;BME280;44891;50.204;8.132;2023-07-29T18:40:48;97574.69;;;23.00;61.48
59106;BME280;44891;50.204;8.132;2023-07-29T18:44:53;97579.69;;;22.89;61.44
59106;BME280;44891;50.204;8.132;2023-07-29T18:48:56;97588.47;;;22.77;61.01
59106;BME280;44891;50.204;8.132;2023-07-29T18:52:59;97580.41;;;22.53;63.77
59106;BME280;44891;50.204;8.132;2023-07-29T18:57:03;97590.44;;;22.56;62.15
59106;BME280;44891;50.204;8.132;2023-07-29T19:01:07;97603.91;;;22.47;65.18
59106;BME280;44891;50.204;8.132;2023-07-29T19:05:12;97612.56;;;22.32;65.35
59106;BME280;44891;50.204;8.132;2023-07-29T19:09:16;97613.16;;;22.17;67.11
59106;BME280;44891;50.204;8.132;2023-07-29T19:13:20;97602.91;;;21.98;66.37
59106;BME280;44891;50.204;8.132;2023-07-29T19:17:24;97627.06;;;22.10;65.16
59106;BME280;44891;50.204;8.132;2023-07-29T19:21:27;97630.75;;;21.76;67.25
59106;BME280;44891;50.204;8.132;2023-07-29T19:25:29;97623.84;;;21.54;69.03
59106;BME280;44891;50.204;8.132;2023-07-29T19:29:32;97623.34;;;21.52;71.17
59106;BME280;44891;50.204;8.132;2023-07-29T19:33:37;97628.50;;;21.28;70.43
59106;BME280;44891;50.204;8.132;2023-07-29T19:37:43;97631.34;;;21.23;70.74
59106;BME280;44891;50.204;8.132;2023-07-29T19:41:49;97637.16;;;21.25;72.94
59106;BME280;44891;50.204;8.132;2023-07-29T19:45:51;97634.66;;;21.28;73.43
59106;BME280;44891;50.204;8.132;2023-07-29T19:50:03;97634.97;;;21.18;73.74
59106;BME280;44891;50.204;8.132;2023-07-29T19:54:06;97640.91;;;20.94;75.25
59106;BME280;44891;50.204;8.132;2023-07-29T19:58:10;97650.47;;;20.95;74.81
59106;BME280;44891;50.204;8.132;2023-07-29T20:02:12;97654.25;;;20.94;78.64
59106;BME280;44891;50.204;8.132;2023-07-29T20:06:17;97658.03;;;20.93;80.97
59106;BME280;44891;50.204;8.132;2023-07-29T20:10:19;97667.94;;;20.84;81.69
59106;BME280;44891;50.204;8.132;2023-07-29T20:14:22;97683.97;;;20.67;81.05
59106;BME280;44891;50.204;8.132;2023-07-29T20:18:24;97709.56;;;20.59;78.73
59106;BME280;44891;50.204;8.132;2023-07-29T20:22:32;97704.41;;;20.45;84.03
59106;BME280;44891;50.204;8.132;2023-07-29T20:26:34;97672.38;;;20.02;90.48
59106;BME280;44891;50.204;8.132;2023-07-29T20:30:37;97667.34;;;19.35;90.89
59106;BME280;44891;50.204;8.132;2023-07-29T20:34:41;97677.63;;;19.59;91.46
59106;BME280;44891;50.204;8.132;2023-07-29T20:38:45;97655.41;;;19.23;94.49
59106;BME280;44891;50.204;8.132;2023-07-29T20:42:47;97675.25;;;18.86;93.87
59106;BME280;44891;50.204;8.132;2023-07-29T20:46:52;97671.81;;;18.63;95.30
59106;BME280;44891;50.204;8.132;2023-07-29T20:50:55;97660.59;;;18.66;96.77
59106;BME280;44891;50.204;8.132;2023-07-29T20:54:59;97672.25;;;18.79;98.70
59106;BME280;44891;50.204;8.132;2023-07-29T20:59:01;97673.44;;;18.95;100.00
59106;BME280;44891;50.204;8.132;2023-07-29T21:03:06;97688.59;;;18.95;100.00
59106;BME280;44891;50.204;8.132;2023-07-29T21:07:09;97674.31;;;18.82;100.00
59106;BME280;44891;50.204;8.132;2023-07-29T21:11:13;97670.69;;;18.78;100.00
59106;BME280;44891;50.204;8.132;2023-07-29T21:15:15;97677.13;;;18.86;100.00
59106;BME280;44891;50.204;8.132;2023-07-29T21:19:21;97691.50;;;18.76;100.00